Wetterdaten: Dienstag, 07.11.2017
Datum Zeit Temp. A. Aussen2m Feuchte A. Feuchte 2 Luftdruck Regen Wind Richtung Richtung Sonnenschein
07.11.2017 00:00 3,3 C 3,6 C 99 % 91 % 1023,9 hPa 0,0 l/m 0,0 km/h (0 Bft) N-NO 30 0 min
07.11.2017 00:05 3,4 C 3,6 C 99 % 91 % 1023,9 hPa 0,0 l/m 0,0 km/h (0 Bft) N 5 0 min
07.11.2017 00:10 3,3 C 3,6 C 99 % 91 % 1023,9 hPa 0,0 l/m 0,0 km/h (0 Bft) N 5 0 min
07.11.2017 00:15 3,4 C 3,5 C 99 % 91 % 1023,9 hPa 0,0 l/m 0,0 km/h (0 Bft) O 85 0 min
07.11.2017 00:20 3,4 C 3,5 C 99 % 91 % 1023,9 hPa 0,0 l/m 0,0 km/h (0 Bft) W 260 0 min
07.11.2017 00:25 3,5 C 3,5 C 99 % 92 % 1023,9 hPa 0,0 l/m 0,0 km/h (0 Bft) W 280 0 min
07.11.2017 00:30 3,7 C 3,6 C 99 % 93 % 1023,9 hPa 0,0 l/m 4,8 km/h (1 Bft) O-SO 110 0 min
07.11.2017 00:35 3,8 C 3,8 C 99 % 93 % 1023,9 hPa 0,0 l/m 0,0 km/h (0 Bft) NW 320 0 min
07.11.2017 00:40 4,0 C 4,0 C 99 % 94 % 1023,9 hPa 0,0 l/m 0,6 km/h (0 Bft) N-NW 335 0 min
07.11.2017 00:45 4,0 C 4,0 C 99 % 94 % 1023,9 hPa 0,0 l/m 0,0 km/h (0 Bft) NW 315 0 min
07.11.2017 00:50 4,0 C 4,1 C 99 % 93 % 1023,9 hPa 0,0 l/m 1,2 km/h (1 Bft) O 90 0 min
07.11.2017 00:55 4,1 C 4,1 C 99 % 93 % 1023,9 hPa 0,0 l/m 0,0 km/h (0 Bft) NO 50 0 min
07.11.2017 01:00 4,0 C 4,1 C 99 % 93 % 1023,9 hPa 0,0 l/m 0,0 km/h (0 Bft) S 180 0 min
07.11.2017 01:05 4,0 C 4,2 C 99 % 93 % 1023,9 hPa 0,0 l/m 0,0 km/h (0 Bft) W 270 0 min
07.11.2017 01:10 4,0 C 4,1 C 99 % 93 % 1023,9 hPa 0,0 l/m 2,4 km/h (1 Bft) NO 35 0 min
07.11.2017 01:15 3,9 C 4,1 C 98 % 92 % 1022,9 hPa 0,0 l/m 0,0 km/h (0 Bft) O-NO 60 0 min
07.11.2017 01:20 3,9 C 4,1 C 99 % 92 % 1022,9 hPa 0,0 l/m 0,0 km/h (0 Bft) N-NO 20 0 min
07.11.2017 01:25 3,9 C 4,0 C 99 % 92 % 1022,9 hPa 0,0 l/m 6,1 km/h (2 Bft) O-SO 105 0 min
07.11.2017 01:30 3,9 C 4,0 C 99 % 92 % 1022,9 hPa 0,0 l/m 5,4 km/h (2 Bft) NO 40 0 min
07.11.2017 01:35 3,9 C 4,1 C 99 % 92 % 1022,9 hPa 0,0 l/m 1,2 km/h (1 Bft) W-NW 285 0 min
07.11.2017 01:40 4,0 C 4,0 C 99 % 92 % 1022,9 hPa 0,0 l/m 3,6 km/h (1 Bft) N-NO 20 0 min
07.11.2017 01:45 3,8 C 4,0 C 99 % 92 % 1023,9 hPa 0,0 l/m 3,6 km/h (1 Bft) S-SO 150 0 min
07.11.2017 01:50 3,5 C 3,8 C 99 % 92 % 1023,9 hPa 0,0 l/m 0,0 km/h (0 Bft) O-SO 120 0 min
07.11.2017 01:55 3,4 C 3,8 C 99 % 92 % 1023,9 hPa 0,0 l/m 0,0 km/h (0 Bft) O 90 0 min
07.11.2017 02:00 3,3 C 3,7 C 99 % 91 % 1023,9 hPa 0,0 l/m 0,0 km/h (0 Bft) O-SO 105 0 min
07.11.2017 02:05 3,1 C 3,6 C 99 % 92 % 1023,9 hPa 0,0 l/m 3,0 km/h (1 Bft) NO 45 0 min
07.11.2017 02:10 3,1 C 3,5 C 99 % 92 % 1023,9 hPa 0,0 l/m 0,0 km/h (0 Bft) O-NO 60 0 min
07.11.2017 02:15 3,0 C 3,4 C 99 % 92 % 1023,9 hPa 0,0 l/m 0,0 km/h (0 Bft) N-NO 20 0 min
07.11.2017 02:20 3,0 C 3,4 C 99 % 92 % 1023,9 hPa 0,0 l/m 0,0 km/h (0 Bft) NO 45 0 min
07.11.2017 02:25 2,9 C 3,3 C 99 % 91 % 1023,9 hPa 0,0 l/m 1,2 km/h (1 Bft) O-NO 60 0 min
07.11.2017 02:30 2,9 C 3,3 C 99 % 92 % 1022,9 hPa 0,0 l/m 0,0 km/h (0 Bft) N-NO 25 0 min
07.11.2017 02:35 3,1 C 3,3 C 99 % 92 % 1022,9 hPa 0,0 l/m 0,0 km/h (0 Bft) N-NO 25 0 min
07.11.2017 02:40 3,1 C 3,2 C 99 % 92 % 1022,9 hPa 0,0 l/m 0,0 km/h (0 Bft) N-NO 25 0 min
07.11.2017 02:45 3,1 C 3,1 C 99 % 91 % 1022,9 hPa 0,0 l/m 0,0 km/h (0 Bft) NW 315 0 min
07.11.2017 02:50 2,9 C 2,9 C 99 % 91 % 1022,9 hPa 0,0 l/m 0,0 km/h (0 Bft) N 350 0 min
07.11.2017 02:55 2,7 C 2,8 C 99 % 91 % 1022,9 hPa 0,0 l/m 0,0 km/h (0 Bft) N 355 0 min
07.11.2017 03:00 2,9 C 2,7 C 99 % 91 % 1022,9 hPa 0,0 l/m 0,0 km/h (0 Bft) N 355 0 min
07.11.2017 03:05 2,8 C 2,5 C 99 % 91 % 1022,9 hPa 0,0 l/m 0,0 km/h (0 Bft) SO 125 0 min
07.11.2017 03:10 2,9 C 2,5 C 99 % 92 % 1022,9 hPa 0,0 l/m 0,0 km/h (0 Bft) N-NO 30 0 min
07.11.2017 03:15 2,8 C 2,6 C 99 % 92 % 1022,9 hPa 0,0 l/m 0,0 km/h (0 Bft) N-NO 30 0 min
07.11.2017 03:20 2,7 C 2,5 C 99 % 92 % 1022,9 hPa 0,0 l/m 0,0 km/h (0 Bft) NO 40 0 min
07.11.2017 03:25 2,6 C 2,5 C 99 % 92 % 1022,9 hPa 0,0 l/m 0,0 km/h (0 Bft) NO 40 0 min
07.11.2017 03:30 2,5 C 2,4 C 99 % 92 % 1022,9 hPa 0,0 l/m 0,0 km/h (0 Bft) NO 50 0 min
07.11.2017 03:35 2,5 C 2,4 C 99 % 92 % 1022,9 hPa 0,0 l/m 0,0 km/h (0 Bft) SO 140 0 min
07.11.2017 03:40 2,5 C 2,4 C 99 % 92 % 1022,9 hPa 0,0 l/m 0,0 km/h (0 Bft) NO 55 0 min
07.11.2017 03:45 2,4 C 2,4 C 99 % 92 % 1021,9 hPa 0,0 l/m 0,0 km/h (0 Bft) N-NO 15 0 min
07.11.2017 03:50 2,4 C 2,4 C 99 % 93 % 1021,9 hPa 0,0 l/m 0,0 km/h (0 Bft) SO 135 0 min
07.11.2017 03:55 2,4 C 2,4 C 99 % 93 % 1021,9 hPa 0,0 l/m 0,0 km/h (0 Bft) O 100 0 min
07.11.2017 04:00 2,4 C 2,4 C 99 % 93 % 1022,9 hPa 0,0 l/m 0,0 km/h (0 Bft) W-SW 245 0 min
07.11.2017 04:05 2,2 C 2,3 C 99 % 92 % 1022,9 hPa 0,0 l/m 0,0 km/h (0 Bft) N 5 0 min
07.11.2017 04:10 2,2 C 2,2 C 99 % 92 % 1022,9 hPa 0,0 l/m 0,0 km/h (0 Bft) N 10 0 min
07.11.2017 04:15 2,1 C 2,2 C 99 % 92 % 1022,9 hPa 0,0 l/m 0,0 km/h (0 Bft) O-NO 70 0 min
07.11.2017 04:20 2,1 C 2,2 C 99 % 92 % 1022,9 hPa 0,0 l/m 0,0 km/h (0 Bft) S-SO 160 0 min
07.11.2017 04:25 2,0 C 2,1 C 99 % 92 % 1022,9 hPa 0,0 l/m 0,0 km/h (0 Bft) O-NO 65 0 min
07.11.2017 04:30 2,0 C 2,1 C 99 % 92 % 1022,9 hPa 0,0 l/m 0,0 km/h (0 Bft) O 100 0 min
07.11.2017 04:35 2,0 C 2,1 C 99 % 93 % 1022,9 hPa 0,0 l/m 0,0 km/h (0 Bft) O 80 0 min
07.11.2017 04:40 2,0 C 2,0 C 99 % 92 % 1022,9 hPa 0,0 l/m 0,0 km/h (0 Bft) O-SO 115 0 min
07.11.2017 04:45 2,0 C 2,0 C 99 % 93 % 1022,9 hPa 0,0 l/m 0,0 km/h (0 Bft) N-NO 15 0 min
07.11.2017 04:50 2,0 C 2,0 C 99 % 93 % 1022,9 hPa 0,0 l/m 0,0 km/h (0 Bft) N-NO 15 0 min
07.11.2017 04:55 2,0 C 2,0 C 99 % 93 % 1022,9 hPa 0,0 l/m 0,0 km/h (0 Bft) N-NO 25 0 min
07.11.2017 05:00 2,1 C 2,0 C 99 % 93 % 1022,9 hPa 0,0 l/m 0,0 km/h (0 Bft) O 85 0 min
07.11.2017 05:05 2,1 C 2,0 C 99 % 93 % 1022,9 hPa 0,0 l/m 0,0 km/h (0 Bft) N-NO 20 0 min
07.11.2017 05:10 2,1 C 2,0 C 99 % 93 % 1022,9 hPa 0,0 l/m 0,0 km/h (0 Bft) O-SO 115 0 min
07.11.2017 05:15 2,1 C 2,0 C 99 % 93 % 1022,9 hPa 0,0 l/m 0,0 km/h (0 Bft) O 80 0 min
07.11.2017 05:20 2,0 C 2,1 C 99 % 94 % 1022,9 hPa 0,0 l/m 0,0 km/h (0 Bft) NO 35 0 min
07.11.2017 05:25 2,0 C 2,0 C 99 % 93 % 1022,9 hPa 0,0 l/m 0,0 km/h (0 Bft) O 90 0 min
07.11.2017 05:30 1,9 C 2,0 C 99 % 93 % 1022,9 hPa 0,0 l/m 0,0 km/h (0 Bft) O 100 0 min
07.11.2017 05:35 1,9 C 2,0 C 99 % 93 % 1022,9 hPa 0,0 l/m 0,0 km/h (0 Bft) N-NO 30 0 min
07.11.2017 05:40 1,8 C 1,8 C 99 % 93 % 1022,9 hPa 0,0 l/m 0,0 km/h (0 Bft) S-SO 150 0 min
07.11.2017 05:45 1,9 C 1,9 C 99 % 93 % 1021,9 hPa 0,0 l/m 0,0 km/h (0 Bft) O 100 0 min
07.11.2017 05:50 1,8 C 1,9 C 99 % 93 % 1021,9 hPa 0,0 l/m 0,0 km/h (0 Bft) O-NO 75 0 min
07.11.2017 05:55 1,7 C 1,8 C 99 % 93 % 1021,9 hPa 0,0 l/m 0,0 km/h (0 Bft) O 80 0 min
07.11.2017 06:00 1,7 C 1,8 C 99 % 93 % 1021,9 hPa 0,0 l/m 0,0 km/h (0 Bft) O-NO 70 0 min
07.11.2017 06:05 1,7 C 1,8 C 99 % 93 % 1021,9 hPa 0,0 l/m 0,0 km/h (0 Bft) O-SO 115 0 min
07.11.2017 06:10 1,7 C 1,8 C 99 % 93 % 1021,9 hPa 0,0 l/m 0,0 km/h (0 Bft) O-SO 105 0 min
07.11.2017 06:15 1,7 C 1,8 C 99 % 93 % 1021,9 hPa 0,0 l/m 0,0 km/h (0 Bft) N 0 0 min
07.11.2017 06:20 1,6 C 1,8 C 99 % 93 % 1021,9 hPa 0,0 l/m 2,4 km/h (1 Bft) S-SO 150 0 min
07.11.2017 06:25 1,5 C 1,8 C 99 % 93 % 1021,9 hPa 0,0 l/m 0,0 km/h (0 Bft) N-NO 20 0 min
07.11.2017 06:30 1,3 C 1,7 C 99 % 94 % 1021,9 hPa 0,0 l/m 0,0 km/h (0 Bft) O-SO 105 0 min
07.11.2017 06:35 1,2 C 1,6 C 99 % 94 % 1021,9 hPa 0,0 l/m 0,0 km/h (0 Bft) SO 130 0 min
07.11.2017 06:40 1,2 C 1,6 C 99 % 94 % 1021,9 hPa 0,0 l/m 0,0 km/h (0 Bft) SO 130 0 min
07.11.2017 06:45 1,2 C 1,5 C 99 % 94 % 1021,9 hPa 0,0 l/m 0,0 km/h (0 Bft) SO 130 0 min
07.11.2017 06:50 1,2 C 1,4 C 99 % 94 % 1021,9 hPa 0,0 l/m 0,0 km/h (0 Bft) SO 130 0 min
07.11.2017 06:55 1,2 C 1,3 C 99 % 94 % 1021,9 hPa 0,0 l/m 0,0 km/h (0 Bft) SO 130 0 min
07.11.2017 07:00 1,0 C 1,3 C 99 % 94 % 1022,9 hPa 0,0 l/m 1,2 km/h (1 Bft) SO 145 0 min
07.11.2017 07:05 1,0 C 1,3 C 99 % 94 % 1022,9 hPa 0,0 l/m 1,2 km/h (1 Bft) SO 145 0 min
07.11.2017 07:10 1,0 C 1,3 C 99 % 94 % 1022,9 hPa 0,0 l/m 1,2 km/h (1 Bft) SO 145 0 min
07.11.2017 07:15 0,9 C 1,3 C 99 % 94 % 1021,9 hPa 0,0 l/m 0,0 km/h (0 Bft) SO 135 0 min
07.11.2017 07:20 0,9 C 1,2 C 99 % 94 % 1021,9 hPa 0,0 l/m 0,0 km/h (0 Bft) SO 135 0 min
07.11.2017 07:25 0,9 C 1,2 C 99 % 95 % 1021,9 hPa 0,0 l/m 0,0 km/h (0 Bft) O 100 0 min
07.11.2017 07:30 0,9 C 1,2 C 99 % 95 % 1022,9 hPa 0,0 l/m 0,0 km/h (0 Bft) O 100 0 min
07.11.2017 07:35 0,9 C 1,2 C 99 % 95 % 1022,9 hPa 0,0 l/m 0,0 km/h (0 Bft) O 100 0 min
07.11.2017 07:40 0,9 C 1,0 C 99 % 94 % 1022,9 hPa 0,0 l/m 0,0 km/h (0 Bft) O 100 0 min
07.11.2017 07:45 0,9 C 1,0 C 99 % 94 % 1021,9 hPa 0,0 l/m 0,0 km/h (0 Bft) O 100 0 min
07.11.2017 07:50 0,9 C 1,1 C 99 % 95 % 1021,9 hPa 0,0 l/m 0,0 km/h (0 Bft) O 100 0 min
07.11.2017 07:55 1,1 C 1,2 C 99 % 95 % 1021,9 hPa 0,0 l/m 1,2 km/h (1 Bft) O-SO 115 0 min
07.11.2017 08:00 1,2 C 1,3 C 99 % 95 % 1021,9 hPa 0,0 l/m 3,0 km/h (1 Bft) O-SO 115 0 min
07.11.2017 08:05 1,3 C 1,4 C 99 % 95 % 1021,9 hPa 0,0 l/m 0,0 km/h (0 Bft) S-SO 165 0 min
07.11.2017 08:10 1,3 C 1,4 C 99 % 95 % 1021,9 hPa 0,0 l/m 0,0 km/h (0 Bft) O-NO 75 0 min
07.11.2017 08:15 1,4 C 1,5 C 99 % 95 % 1022,9 hPa 0,0 l/m 0,0 km/h (0 Bft) N-NO 15 0 min
07.11.2017 08:20 1,5 C 1,6 C 99 % 95 % 1022,9 hPa 0,0 l/m 0,0 km/h (0 Bft) NO 40 0 min
07.11.2017 08:25 1,6 C 1,6 C 99 % 95 % 1022,9 hPa 0,0 l/m 0,0 km/h (0 Bft) N 350 0 min
07.11.2017 08:30 1,6 C 1,6 C 99 % 95 % 1021,9 hPa 0,0 l/m 0,0 km/h (0 Bft) NW 325 0 min
07.11.2017 08:35 1,4 C 1,6 C 99 % 95 % 1021,9 hPa 0,0 l/m 0,0 km/h (0 Bft) NW 320 0 min
07.11.2017 08:40 1,4 C 1,6 C 99 % 95 % 1021,9 hPa 0,0 l/m 0,0 km/h (0 Bft) NW 320 0 min
07.11.2017 08:45 1,8 C 1,6 C 99 % 95 % 1022,9 hPa 0,0 l/m 0,0 km/h (0 Bft) N-NW 345 7 min
07.11.2017 08:50 2,0 C 1,7 C 99 % 95 % 1022,9 hPa 0,0 l/m 0,0 km/h (0 Bft) NW 315 6 min
07.11.2017 08:55 2,0 C 1,8 C 99 % 95 % 1022,9 hPa 0,0 l/m 0,0 km/h (0 Bft) NW 315 0 min
07.11.2017 09:00 2,6 C 2,0 C 99 % 96 % 1021,9 hPa 0,0 l/m 0,0 km/h (0 Bft) S-SO 165 10 min
07.11.2017 09:05 2,7 C 2,1 C 99 % 96 % 1021,9 hPa 0,0 l/m 0,0 km/h (0 Bft) SO 140 5 min
07.11.2017 09:10 2,7 C 2,2 C 99 % 96 % 1021,9 hPa 0,0 l/m 0,0 km/h (0 Bft) SO 140 0 min
07.11.2017 09:15 2,5 C 2,3 C 99 % 96 % 1021,9 hPa 0,0 l/m 1,8 km/h (1 Bft) O-SO 105 10 min
07.11.2017 09:20 2,4 C 2,4 C 99 % 96 % 1021,9 hPa 0,0 l/m 2,4 km/h (1 Bft) S-SO 150 2 min
07.11.2017 09:25 2,5 C 2,4 C 99 % 96 % 1021,9 hPa 0,0 l/m 1,8 km/h (1 Bft) O-NO 70 5 min
07.11.2017 09:30 2,8 C 2,6 C 99 % 96 % 1021,9 hPa 0,0 l/m 0,6 km/h (0 Bft) SO 145 4 min
07.11.2017 09:35 3,0 C 2,7 C 99 % 96 % 1021,9 hPa 0,0 l/m 0,0 km/h (0 Bft) O-NO 65 3 min
07.11.2017 09:40 3,0 C 2,9 C 99 % 97 % 1021,9 hPa 0,0 l/m 0,0 km/h (0 Bft) O-NO 65 0 min
07.11.2017 09:45 3,0 C 2,9 C 99 % 96 % 1021,9 hPa 0,0 l/m 0,0 km/h (0 Bft) O-NO 65 0 min
07.11.2017 09:50 3,0 C 3,2 C 99 % 97 % 1021,9 hPa 0,0 l/m 0,0 km/h (0 Bft) O-NO 65 0 min
07.11.2017 09:55 3,0 C 3,5 C 99 % 97 % 1021,9 hPa 0,0 l/m 0,0 km/h (0 Bft) O-NO 65 0 min
07.11.2017 10:00 4,7 C 3,7 C 96 % 96 % 1021,9 hPa 0,0 l/m 1,2 km/h (1 Bft) N 10 27 min
07.11.2017 10:05 4,7 C 4,0 C 96 % 96 % 1021,9 hPa 0,0 l/m 1,2 km/h (1 Bft) N 10 0 min
07.11.2017 10:10 4,7 C 4,1 C 96 % 95 % 1021,9 hPa 0,0 l/m 1,2 km/h (1 Bft) N 10 0 min
07.11.2017 10:15 4,7 C 4,4 C 96 % 95 % 1021,9 hPa 0,0 l/m 1,2 km/h (1 Bft) N 10 0 min
07.11.2017 10:20 5,9 C 4,6 C 88 % 94 % 1021,9 hPa 0,0 l/m 4,2 km/h (1 Bft) S-SO 150 18 min
07.11.2017 10:25 5,9 C 4,7 C 88 % 92 % 1021,9 hPa 0,0 l/m 4,2 km/h (1 Bft) S-SO 150 0 min
07.11.2017 10:30 5,9 C 4,9 C 88 % 91 % 1020,9 hPa 0,0 l/m 4,2 km/h (1 Bft) S-SO 150 0 min
07.11.2017 10:35 7,1 C 5,1 C 82 % 90 % 1020,9 hPa 0,0 l/m 2,4 km/h (1 Bft) SO 125 18 min
07.11.2017 10:40 7,1 C 5,3 C 82 % 90 % 1020,9 hPa 0,0 l/m 2,4 km/h (1 Bft) SO 125 0 min
07.11.2017 10:45 7,3 C 5,3 C 80 % 90 % 1020,9 hPa 0,0 l/m 3,6 km/h (1 Bft) N-NW 345 10 min
07.11.2017 10:50 7,4 C 5,5 C 79 % 88 % 1020,9 hPa 0,0 l/m 3,0 km/h (1 Bft) O-NO 70 6 min
07.11.2017 10:55 7,4 C 5,7 C 79 % 87 % 1020,9 hPa 0,0 l/m 3,0 km/h (1 Bft) O-NO 70 0 min
07.11.2017 11:00 7,1 C 5,8 C 79 % 88 % 1021,9 hPa 0,0 l/m 5,4 km/h (2 Bft) O-SO 115 5 min
07.11.2017 11:05 7,2 C 6,0 C 79 % 86 % 1021,9 hPa 0,0 l/m 4,2 km/h (1 Bft) O 100 7 min
07.11.2017 11:10 7,2 C 6,2 C 79 % 86 % 1021,9 hPa 0,0 l/m 4,2 km/h (1 Bft) O 100 0 min
07.11.2017 11:15 7,5 C 6,4 C 78 % 86 % 1020,9 hPa 0,0 l/m 6,7 km/h (2 Bft) O-SO 105 10 min
07.11.2017 11:20 8,0 C 6,6 C 77 % 85 % 1020,9 hPa 0,0 l/m 2,4 km/h (1 Bft) SO 145 7 min
07.11.2017 11:25 8,0 C 6,7 C 77 % 83 % 1020,9 hPa 0,0 l/m 2,4 km/h (1 Bft) SO 145 0 min
07.11.2017 11:30 8,2 C 6,7 C 76 % 83 % 1020,9 hPa 0,0 l/m 3,0 km/h (1 Bft) O-NO 60 9 min
07.11.2017 11:35 7,8 C 6,8 C 75 % 83 % 1020,9 hPa 0,0 l/m 6,1 km/h (2 Bft) SW 220 4 min
07.11.2017 11:40 8,6 C 6,9 C 74 % 83 % 1020,9 hPa 0,0 l/m 3,0 km/h (1 Bft) S 180 6 min
07.11.2017 11:45 8,6 C 7,0 C 74 % 82 % 1019,8 hPa 0,0 l/m 3,0 km/h (1 Bft) S 180 0 min
07.11.2017 11:50 8,6 C 7,1 C 74 % 81 % 1019,8 hPa 0,0 l/m 3,0 km/h (1 Bft) S 180 0 min
07.11.2017 11:55 8,6 C 7,3 C 74 % 81 % 1019,8 hPa 0,0 l/m 3,0 km/h (1 Bft) S 180 0 min
07.11.2017 12:00 8,6 C 7,3 C 74 % 80 % 1019,8 hPa 0,0 l/m 3,0 km/h (1 Bft) S 180 0 min
07.11.2017 12:05 8,6 C 7,6 C 74 % 80 % 1019,8 hPa 0,0 l/m 3,0 km/h (1 Bft) S 180 0 min
07.11.2017 12:10 8,6 C 7,7 C 74 % 80 % 1019,8 hPa 0,0 l/m 3,0 km/h (1 Bft) S 180 0 min
07.11.2017 12:15 8,6 C 7,9 C 74 % 79 % 1019,8 hPa 0,0 l/m 3,0 km/h (1 Bft) S 180 0 min
07.11.2017 12:20 8,6 C 8,0 C 74 % 78 % 1019,8 hPa 0,0 l/m 3,0 km/h (1 Bft) S 180 0 min
07.11.2017 12:25 8,6 C 8,0 C 74 % 78 % 1019,8 hPa 0,0 l/m 3,0 km/h (1 Bft) S 180 0 min
07.11.2017 12:30 8,9 C 8,2 C 70 % 78 % 1019,8 hPa 0,0 l/m 3,6 km/h (1 Bft) S-SW 200 50 min
07.11.2017 12:35 9,1 C 8,5 C 72 % 78 % 1019,8 hPa 0,0 l/m 3,0 km/h (1 Bft) W 280 6 min
07.11.2017 12:40 8,8 C 8,4 C 72 % 77 % 1019,8 hPa 0,0 l/m 4,8 km/h (1 Bft) W-NW 285 5 min
07.11.2017 12:45 8,6 C 8,2 C 73 % 78 % 1018,8 hPa 0,0 l/m 6,7 km/h (2 Bft) W-NW 290 2 min
07.11.2017 12:50 9,0 C 8,4 C 73 % 77 % 1018,8 hPa 0,0 l/m 4,8 km/h (1 Bft) SW 235 7 min
07.11.2017 12:55 9,4 C 8,4 C 71 % 78 % 1018,8 hPa 0,0 l/m 3,6 km/h (1 Bft) N 5 6 min
07.11.2017 13:00 9,4 C 8,5 C 71 % 77 % 1018,8 hPa 0,0 l/m 3,6 km/h (1 Bft) N 5 0 min
07.11.2017 13:05 9,4 C 8,5 C 71 % 75 % 1018,8 hPa 0,0 l/m 6,7 km/h (2 Bft) N-NO 25 10 min
07.11.2017 13:10 8,9 C 8,5 C 72 % 75 % 1018,8 hPa 0,0 l/m 6,7 km/h (2 Bft) NO 55 5 min
07.11.2017 13:15 9,2 C 8,6 C 71 % 75 % 1018,8 hPa 0,0 l/m 5,4 km/h (2 Bft) N-NO 20 2 min
07.11.2017 13:20 9,4 C 8,7 C 70 % 75 % 1018,8 hPa 0,0 l/m 3,6 km/h (1 Bft) N 350 8 min
07.11.2017 13:25 9,7 C 8,7 C 70 % 74 % 1018,8 hPa 0,0 l/m 4,2 km/h (1 Bft) N 0 5 min
07.11.2017 13:30 9,9 C 8,8 C 69 % 73 % 1018,8 hPa 0,0 l/m 3,0 km/h (1 Bft) N 355 5 min
07.11.2017 13:35 9,9 C 8,8 C 68 % 74 % 1018,8 hPa 0,0 l/m 3,0 km/h (1 Bft) N-NO 20 5 min
07.11.2017 13:40 10,1 C 9,0 C 66 % 74 % 1018,8 hPa 0,0 l/m 7,9 km/h (2 Bft) N 10 5 min
07.11.2017 13:45 9,7 C 9,0 C 67 % 72 % 1018,8 hPa 0,0 l/m 7,3 km/h (2 Bft) NW 320 5 min
07.11.2017 13:50 9,5 C 9,1 C 68 % 72 % 1018,8 hPa 0,0 l/m 6,1 km/h (2 Bft) W-NW 300 5 min
07.11.2017 13:55 10,0 C 9,1 C 68 % 73 % 1018,8 hPa 0,0 l/m 3,6 km/h (1 Bft) W 265 5 min
07.11.2017 14:00 9,9 C 9,1 C 67 % 71 % 1018,8 hPa 0,0 l/m 6,1 km/h (2 Bft) O 85 6 min
07.11.2017 14:05 9,6 C 9,0 C 68 % 72 % 1018,8 hPa 0,0 l/m 6,1 km/h (2 Bft) W-NW 300 4 min
07.11.2017 14:10 9,6 C 8,9 C 69 % 72 % 1018,8 hPa 0,0 l/m 4,8 km/h (1 Bft) N-NO 25 5 min
07.11.2017 14:15 10,2 C 9,1 C 67 % 72 % 1017,8 hPa 0,0 l/m 2,4 km/h (1 Bft) N 355 5 min
07.11.2017 14:20 10,0 C 9,2 C 66 % 70 % 1017,8 hPa 0,0 l/m 7,3 km/h (2 Bft) NO 45 6 min
07.11.2017 14:25 10,1 C 9,2 C 67 % 71 % 1017,8 hPa 0,0 l/m 9,7 km/h (2 Bft) N 10 3 min
07.11.2017 14:30 9,3 C 9,2 C 68 % 71 % 1018,8 hPa 0,0 l/m 7,9 km/h (2 Bft) N-NO 25 1 min
07.11.2017 14:35 9,4 C 9,1 C 69 % 72 % 1018,8 hPa 0,0 l/m 3,6 km/h (1 Bft) NW 315 3 min
07.11.2017 14:40 9,4 C 9,0 C 70 % 71 % 1018,8 hPa 0,0 l/m 9,7 km/h (2 Bft) N-NO 15 5 min
07.11.2017 14:45 9,4 C 8,9 C 70 % 71 % 1018,8 hPa 0,0 l/m 9,7 km/h (2 Bft) N-NO 15 0 min
07.11.2017 14:50 8,7 C 8,9 C 71 % 71 % 1018,8 hPa 0,0 l/m 7,3 km/h (2 Bft) N 355 8 min
07.11.2017 14:55 8,6 C 8,9 C 71 % 71 % 1018,8 hPa 0,0 l/m 9,7 km/h (2 Bft) N-NO 25 0 min
07.11.2017 15:00 8,6 C 8,9 C 71 % 71 % 1017,8 hPa 0,0 l/m 6,7 km/h (2 Bft) NO 45 0 min
07.11.2017 15:05 8,6 C 8,9 C 72 % 72 % 1017,8 hPa 0,0 l/m 6,1 km/h (2 Bft) O-NO 60 0 min
07.11.2017 15:10 8,5 C 8,8 C 72 % 72 % 1017,8 hPa 0,0 l/m 7,9 km/h (2 Bft) NO 35 0 min
07.11.2017 15:15 8,4 C 8,8 C 72 % 72 % 1018,8 hPa 0,0 l/m 9,7 km/h (2 Bft) N-NO 15 0 min
07.11.2017 15:20 8,2 C 8,8 C 73 % 73 % 1018,8 hPa 0,0 l/m 6,7 km/h (2 Bft) N 355 0 min
07.11.2017 15:25 8,2 C 8,7 C 73 % 73 % 1018,8 hPa 0,0 l/m 8,5 km/h (2 Bft) N 355 0 min
07.11.2017 15:30 8,2 C 8,7 C 74 % 73 % 1017,8 hPa 0,0 l/m 7,9 km/h (2 Bft) O-NO 60 2 min
07.11.2017 15:35 8,1 C 8,7 C 74 % 73 % 1017,8 hPa 0,0 l/m 9,7 km/h (2 Bft) N 10 0 min
07.11.2017 15:40 8,1 C 8,6 C 74 % 73 % 1017,8 hPa 0,0 l/m 7,3 km/h (2 Bft) N 10 0 min
07.11.2017 15:45 8,0 C 8,5 C 74 % 73 % 1017,8 hPa 0,0 l/m 4,8 km/h (1 Bft) N-NO 30 0 min
07.11.2017 15:50 8,1 C 8,4 C 75 % 73 % 1017,8 hPa 0,0 l/m 2,4 km/h (1 Bft) N-NO 15 0 min
07.11.2017 15:55 8,0 C 8,4 C 75 % 74 % 1017,8 hPa 0,0 l/m 3,6 km/h (1 Bft) NO 35 0 min
07.11.2017 16:00 7,9 C 8,4 C 75 % 74 % 1016,8 hPa 0,0 l/m 5,4 km/h (2 Bft) N-NO 25 0 min
07.11.2017 16:05 7,9 C 8,4 C 75 % 74 % 1016,8 hPa 0,0 l/m 4,8 km/h (1 Bft) NO 35 0 min
07.11.2017 16:10 7,8 C 8,3 C 76 % 75 % 1016,8 hPa 0,0 l/m 3,0 km/h (1 Bft) N 10 0 min
07.11.2017 16:15 7,8 C 8,3 C 76 % 75 % 1017,8 hPa 0,0 l/m 3,6 km/h (1 Bft) N 10 0 min
07.11.2017 16:20 7,7 C 8,3 C 77 % 75 % 1017,8 hPa 0,0 l/m 4,8 km/h (1 Bft) N-NO 25 0 min
07.11.2017 16:25 7,6 C 8,2 C 77 % 75 % 1017,8 hPa 0,0 l/m 7,3 km/h (2 Bft) N 355 0 min
07.11.2017 16:30 7,5 C 8,0 C 80 % 78 % 1017,8 hPa 0,0 l/m 6,1 km/h (2 Bft) W-NW 285 0 min
07.11.2017 16:35 7,3 C 7,9 C 82 % 79 % 1017,8 hPa 0,0 l/m 6,7 km/h (2 Bft) N 5 0 min
07.11.2017 16:40 7,1 C 7,8 C 84 % 80 % 1017,8 hPa 0,0 l/m 7,3 km/h (2 Bft) NO 35 0 min
07.11.2017 16:45 7,0 C 7,7 C 84 % 81 % 1017,8 hPa 0,0 l/m 6,7 km/h (2 Bft) N 5 0 min
07.11.2017 16:50 6,9 C 7,6 C 85 % 81 % 1017,8 hPa 0,0 l/m 7,3 km/h (2 Bft) N-NO 25 0 min
07.11.2017 16:55 6,9 C 7,6 C 85 % 81 % 1017,8 hPa 0,0 l/m 4,2 km/h (1 Bft) N-NW 335 0 min
07.11.2017 17:00 6,9 C 7,4 C 85 % 81 % 1016,8 hPa 0,0 l/m 6,1 km/h (2 Bft) N 10 0 min
07.11.2017 17:05 6,9 C 7,4 C 84 % 81 % 1016,8 hPa 0,0 l/m 8,5 km/h (2 Bft) N-NO 25 0 min
07.11.2017 17:10 7,0 C 7,3 C 84 % 81 % 1016,8 hPa 0,0 l/m 8,5 km/h (2 Bft) NO 45 0 min
07.11.2017 17:15 6,9 C 7,3 C 84 % 81 % 1017,8 hPa 0,0 l/m 9,7 km/h (2 Bft) N-NO 15 0 min
07.11.2017 17:20 6,8 C 7,2 C 84 % 81 % 1017,8 hPa 0,0 l/m 3,0 km/h (1 Bft) N-NO 25 0 min
07.11.2017 17:25 7,0 C 7,2 C 85 % 81 % 1017,8 hPa 0,0 l/m 5,4 km/h (2 Bft) NO 35 0 min
07.11.2017 17:30 6,8 C 7,1 C 85 % 82 % 1016,8 hPa 0,0 l/m 8,5 km/h (2 Bft) NO 40 0 min
07.11.2017 17:35 6,7 C 7,1 C 85 % 82 % 1016,8 hPa 0,0 l/m 6,1 km/h (2 Bft) NO 40 0 min
07.11.2017 17:40 6,8 C 7,1 C 86 % 83 % 1016,8 hPa 0,0 l/m 1,2 km/h (1 Bft) N 5 0 min
07.11.2017 17:45 6,8 C 7,1 C 86 % 83 % 1016,8 hPa 0,0 l/m 6,7 km/h (2 Bft) N-NO 30 0 min
07.11.2017 17:50 6,8 C 7,1 C 86 % 83 % 1016,8 hPa 0,0 l/m 6,1 km/h (2 Bft) O-SO 115 0 min
07.11.2017 17:55 6,8 C 7,1 C 86 % 83 % 1016,8 hPa 0,0 l/m 3,0 km/h (1 Bft) O-SO 105 0 min
07.11.2017 18:00 6,8 C 7,1 C 86 % 83 % 1016,8 hPa 0,0 l/m 4,8 km/h (1 Bft) NO 50 0 min
07.11.2017 18:05 6,8 C 7,1 C 85 % 83 % 1016,8 hPa 0,0 l/m 10,3 km/h (2 Bft) O-NO 70 0 min
07.11.2017 18:10 6,8 C 7,1 C 86 % 83 % 1016,8 hPa 0,0 l/m 4,8 km/h (1 Bft) N-NW 340 0 min
07.11.2017 18:15 6,9 C 7,1 C 86 % 83 % 1016,8 hPa 0,0 l/m 3,0 km/h (1 Bft) NO 50 0 min
07.11.2017 18:20 6,9 C 7,1 C 86 % 83 % 1016,8 hPa 0,0 l/m 6,1 km/h (2 Bft) O 95 0 min
07.11.2017 18:25 6,8 C 7,1 C 86 % 83 % 1016,8 hPa 0,0 l/m 6,1 km/h (2 Bft) SO 130 0 min
07.11.2017 18:30 6,8 C 7,1 C 86 % 83 % 1016,8 hPa 0,0 l/m 5,4 km/h (2 Bft) NO 45 0 min
07.11.2017 18:35 6,9 C 7,1 C 86 % 83 % 1016,8 hPa 0,0 l/m 4,8 km/h (1 Bft) S-SO 155 0 min
07.11.2017 18:40 6,9 C 7,1 C 86 % 84 % 1016,8 hPa 0,0 l/m 6,7 km/h (2 Bft) SO 125 0 min
07.11.2017 18:45 6,9 C 7,1 C 87 % 84 % 1016,8 hPa 0,0 l/m 2,4 km/h (1 Bft) SO 130 0 min
07.11.2017 18:50 6,8 C 7,1 C 87 % 84 % 1016,8 hPa 0,0 l/m 4,8 km/h (1 Bft) O-NO 60 0 min
07.11.2017 18:55 6,8 C 7,1 C 87 % 84 % 1016,8 hPa 0,0 l/m 6,7 km/h (2 Bft) O-SO 120 0 min
07.11.2017 19:00 6,8 C 7,0 C 87 % 84 % 1016,8 hPa 0,0 l/m 6,7 km/h (2 Bft) O 90 0 min
07.11.2017 19:05 6,8 C 7,0 C 87 % 84 % 1016,8 hPa 0,0 l/m 7,9 km/h (2 Bft) SO 130 0 min
07.11.2017 19:10 6,8 C 7,0 C 87 % 84 % 1016,8 hPa 0,0 l/m 4,8 km/h (1 Bft) S-SO 150 0 min
07.11.2017 19:15 6,8 C 7,0 C 87 % 84 % 1016,8 hPa 0,0 l/m 6,1 km/h (2 Bft) O-NO 70 0 min
07.11.2017 19:20 6,8 C 7,1 C 87 % 84 % 1016,8 hPa 0,0 l/m 5,4 km/h (2 Bft) NO 55 0 min
07.11.2017 19:25 6,9 C 7,1 C 87 % 85 % 1016,8 hPa 0,0 l/m 5,4 km/h (2 Bft) S 170 0 min
07.11.2017 19:30 6,9 C 7,1 C 87 % 85 % 1016,8 hPa 0,0 l/m 4,8 km/h (1 Bft) NW 310 0 min
07.11.2017 19:35 7,0 C 7,1 C 87 % 85 % 1016,8 hPa 0,0 l/m 6,1 km/h (2 Bft) NO 45 0 min
07.11.2017 19:40 6,9 C 7,1 C 87 % 85 % 1016,8 hPa 0,0 l/m 6,1 km/h (2 Bft) SO 125 0 min
07.11.2017 19:45 6,9 C 7,1 C 88 % 85 % 1016,8 hPa 0,0 l/m 3,6 km/h (1 Bft) N-NW 340 0 min
07.11.2017 19:50 6,9 C 7,1 C 88 % 85 % 1016,8 hPa 0,0 l/m 5,4 km/h (2 Bft) O-SO 110 0 min
07.11.2017 19:55 6,9 C 7,1 C 88 % 85 % 1016,8 hPa 0,0 l/m 6,1 km/h (2 Bft) O-NO 60 0 min
07.11.2017 20:00 6,9 C 7,1 C 88 % 85 % 1016,8 hPa 0,0 l/m 5,4 km/h (2 Bft) N-NO 20 0 min
07.11.2017 20:05 6,9 C 7,1 C 88 % 85 % 1016,8 hPa 0,0 l/m 3,0 km/h (1 Bft) NO 55 0 min
07.11.2017 20:10 6,9 C 7,1 C 88 % 85 % 1016,8 hPa 0,0 l/m 5,4 km/h (2 Bft) O-SO 105 0 min
07.11.2017 20:15 6,9 C 7,1 C 88 % 85 % 1015,8 hPa 0,0 l/m 4,8 km/h (1 Bft) O-NO 70 0 min
07.11.2017 20:20 6,9 C 7,1 C 88 % 85 % 1015,8 hPa 0,0 l/m 3,0 km/h (1 Bft) O-SO 115 0 min
07.11.2017 20:25 7,0 C 7,1 C 88 % 85 % 1015,8 hPa 0,0 l/m 0,0 km/h (0 Bft) NW 310 0 min
07.11.2017 20:30 7,0 C 7,1 C 88 % 85 % 1016,8 hPa 0,0 l/m 0,6 km/h (0 Bft) N 5 0 min
07.11.2017 20:35 7,0 C 7,1 C 88 % 85 % 1016,8 hPa 0,0 l/m 2,4 km/h (1 Bft) NO 50 0 min
07.11.2017 20:40 7,0 C 7,1 C 88 % 85 % 1016,8 hPa 0,0 l/m 0,6 km/h (0 Bft) NW 325 0 min
07.11.2017 20:45 6,9 C 7,1 C 89 % 86 % 1015,8 hPa 0,0 l/m 2,4 km/h (1 Bft) W 280 0 min
07.11.2017 20:50 6,9 C 7,1 C 90 % 86 % 1015,8 hPa 0,0 l/m 1,2 km/h (1 Bft) N-NO 30 0 min
07.11.2017 20:55 6,8 C 7,1 C 90 % 86 % 1015,8 hPa 0,0 l/m 3,6 km/h (1 Bft) N-NO 20 0 min
07.11.2017 21:00 6,8 C 7,1 C 90 % 86 % 1015,8 hPa 0,0 l/m 1,2 km/h (1 Bft) NO 40 0 min
07.11.2017 21:05 6,8 C 7,1 C 90 % 86 % 1015,8 hPa 0,0 l/m 0,0 km/h (0 Bft) N 5 0 min
07.11.2017 21:10 6,8 C 7,0 C 90 % 86 % 1015,8 hPa 0,0 l/m 0,0 km/h (0 Bft) N-NW 345 0 min
07.11.2017 21:15 6,8 C 7,0 C 90 % 86 % 1015,8 hPa 0,0 l/m 0,0 km/h (0 Bft) N 10 0 min
07.11.2017 21:20 6,7 C 7,0 C 90 % 86 % 1015,8 hPa 0,0 l/m 0,0 km/h (0 Bft) NW 320 0 min
07.11.2017 21:25 6,5 C 6,9 C 91 % 87 % 1015,8 hPa 0,0 l/m 0,0 km/h (0 Bft) NW 315 0 min
07.11.2017 21:30 6,5 C 6,8 C 91 % 87 % 1015,8 hPa 0,0 l/m 0,0 km/h (0 Bft) N 0 0 min
07.11.2017 21:35 6,3 C 6,8 C 92 % 87 % 1015,8 hPa 0,0 l/m 0,0 km/h (0 Bft) N-NW 345 0 min
07.11.2017 21:40 6,2 C 6,7 C 93 % 87 % 1015,8 hPa 0,0 l/m 0,0 km/h (0 Bft) N-NW 345 0 min
07.11.2017 21:45 6,0 C 6,5 C 93 % 88 % 1015,8 hPa 0,0 l/m 0,0 km/h (0 Bft) N 350 0 min
07.11.2017 21:50 5,9 C 6,3 C 94 % 88 % 1015,8 hPa 0,0 l/m 3,6 km/h (1 Bft) N-NW 340 0 min
07.11.2017 21:55 5,7 C 6,2 C 94 % 89 % 1015,8 hPa 0,0 l/m 4,8 km/h (1 Bft) NO 40 0 min
07.11.2017 22:00 5,6 C 6,2 C 95 % 89 % 1015,8 hPa 0,0 l/m 5,4 km/h (2 Bft) N-NO 25 0 min
07.11.2017 22:05 5,6 C 6,1 C 95 % 88 % 1015,8 hPa 0,0 l/m 3,6 km/h (1 Bft) N-NO 25 0 min
07.11.2017 22:10 5,6 C 6,0 C 95 % 89 % 1015,8 hPa 0,0 l/m 2,4 km/h (1 Bft) N-NO 20 0 min
07.11.2017 22:15 5,5 C 6,0 C 95 % 89 % 1015,8 hPa 0,0 l/m 2,4 km/h (1 Bft) N-NO 15 0 min
07.11.2017 22:20 5,5 C 5,9 C 95 % 89 % 1015,8 hPa 0,0 l/m 3,6 km/h (1 Bft) N 355 0 min
07.11.2017 22:25 5,5 C 5,9 C 96 % 90 % 1015,8 hPa 0,0 l/m 2,4 km/h (1 Bft) N-NO 30 0 min
07.11.2017 22:30 5,5 C 5,9 C 96 % 90 % 1015,8 hPa 0,0 l/m 0,0 km/h (0 Bft) N-NO 30 0 min
07.11.2017 22:35 5,6 C 5,9 C 96 % 90 % 1015,8 hPa 0,0 l/m 0,0 km/h (0 Bft) N 0 0 min
07.11.2017 22:40 5,6 C 5,9 C 96 % 90 % 1015,8 hPa 0,0 l/m 0,0 km/h (0 Bft) N-NW 340 0 min
07.11.2017 22:45 5,6 C 5,9 C 96 % 90 % 1015,8 hPa 0,0 l/m 0,0 km/h (0 Bft) N-NO 30 0 min
07.11.2017 22:50 5,6 C 5,8 C 96 % 90 % 1015,8 hPa 0,0 l/m 1,2 km/h (1 Bft) NW 315 0 min
07.11.2017 22:55 5,6 C 5,8 C 96 % 90 % 1015,8 hPa 0,0 l/m 0,6 km/h (0 Bft) N 10 0 min
07.11.2017 23:00 5,6 C 5,9 C 96 % 90 % 1015,8 hPa 0,0 l/m 0,0 km/h (0 Bft) NW 325 0 min
07.11.2017 23:05 5,4 C 5,8 C 96 % 90 % 1015,8 hPa 0,0 l/m 0,0 km/h (0 Bft) N-NW 340 0 min
07.11.2017 23:10 5,4 C 5,8 C 96 % 90 % 1015,8 hPa 0,0 l/m 1,2 km/h (1 Bft) N 0 0 min
07.11.2017 23:15 5,4 C 5,7 C 97 % 90 % 1015,9 hPa 0,0 l/m 0,0 km/h (0 Bft) NW 310 0 min
07.11.2017 23:20 5,3 C 5,6 C 97 % 90 % 1015,9 hPa 0,0 l/m 0,0 km/h (0 Bft) W-NW 290 0 min
07.11.2017 23:25 5,1 C 5,5 C 97 % 90 % 1015,9 hPa 0,0 l/m 0,0 km/h (0 Bft) W-NW 295 0 min
07.11.2017 23:30 5,1 C 5,4 C 97 % 90 % 1015,9 hPa 0,0 l/m 0,0 km/h (0 Bft) N-NW 330 0 min
07.11.2017 23:35 5,1 C 5,3 C 98 % 90 % 1015,9 hPa 0,0 l/m 0,0 km/h (0 Bft) N-NW 345 0 min
07.11.2017 23:40 5,1 C 5,2 C 98 % 89 % 1015,9 hPa 0,0 l/m 0,0 km/h (0 Bft) N-NW 340 0 min
07.11.2017 23:45 5,1 C 5,1 C 98 % 89 % 1015,9 hPa 0,0 l/m 0,0 km/h (0 Bft) N 0 0 min
07.11.2017 23:50 5,0 C 5,1 C 98 % 91 % 1015,9 hPa 0,0 l/m 0,0 km/h (0 Bft) N-NW 330 0 min
07.11.2017 23:55 5,0 C 5,2 C 98 % 91 % 1015,9 hPa 0,0 l/m 0,0 km/h (0 Bft) W 280 0 min
_ Min-Zeit 07:15 07:40 13:40 14:20 20:15 - 00:00 - - -
Minimum _ 0,9 C 1,0 C 66 % 70 % 1015,8 hPa - 0,0 km/h (0 Bft) - - -
_ Max-Zeit 14:15 14:20 00:00 09:40 02:25 00:00 18:05 - - 12:30
Maximum _ 10,2 C 9,2 C 99 % 97 % 1023,9 hPa 0,0 l/m 10,3 km/h
O-NO (2 Bft)
- - 50 min
Durchschnitt _ 5,3 C 5,2 C 90 % 87 % 1019,9 hPa #0,0 l/m 2,6 km/h (1 Bft) N-NO - #6:03 h